sensor_id;sensor_type;location;lat;lon;timestamp;P1;durP1;ratioP1;P2;durP2;ratioP2
17197;SDS011;8715;51.010;6.812;2022-08-07T00:01:08;418.17;;;400.88;;
17197;SDS011;8715;51.010;6.812;2022-08-07T00:03:33;412.70;;;395.65;;
17197;SDS011;8715;51.010;6.812;2022-08-07T00:05:59;407.45;;;390.60;;
17197;SDS011;8715;51.010;6.812;2022-08-07T00:08:24;399.95;;;383.40;;
17197;SDS011;8715;51.010;6.812;2022-08-07T00:10:50;403.98;;;387.00;;
17197;SDS011;8715;51.010;6.812;2022-08-07T00:13:16;398.33;;;381.98;;
17197;SDS011;8715;51.010;6.812;2022-08-07T00:15:42;398.08;;;381.73;;
17197;SDS011;8715;51.010;6.812;2022-08-07T00:18:08;409.23;;;392.43;;
17197;SDS011;8715;51.010;6.812;2022-08-07T00:20:34;408.33;;;391.33;;
17197;SDS011;8715;51.010;6.812;2022-08-07T00:23:00;406.88;;;389.92;;
17197;SDS011;8715;51.010;6.812;2022-08-07T00:25:26;404.25;;;387.50;;
17197;SDS011;8715;51.010;6.812;2022-08-07T00:27:51;399.25;;;383.02;;
17197;SDS011;8715;51.010;6.812;2022-08-07T00:30:17;397.75;;;381.38;;
17197;SDS011;8715;51.010;6.812;2022-08-07T00:32:43;384.52;;;369.02;;
17197;SDS011;8715;51.010;6.812;2022-08-07T00:35:10;402.13;;;385.77;;
17197;SDS011;8715;51.010;6.812;2022-08-07T00:37:36;395.35;;;378.70;;
17197;SDS011;8715;51.010;6.812;2022-08-07T00:40:01;395.67;;;379.27;;
17197;SDS011;8715;51.010;6.812;2022-08-07T00:42:27;398.65;;;379.77;;
17197;SDS011;8715;51.010;6.812;2022-08-07T00:44:52;396.13;;;378.93;;
17197;SDS011;8715;51.010;6.812;2022-08-07T00:47:17;404.05;;;387.58;;
17197;SDS011;8715;51.010;6.812;2022-08-07T00:49:43;396.70;;;380.10;;
17197;SDS011;8715;51.010;6.812;2022-08-07T00:52:08;388.10;;;372.20;;
17197;SDS011;8715;51.010;6.812;2022-08-07T00:54:34;391.95;;;376.15;;
17197;SDS011;8715;51.010;6.812;2022-08-07T00:56:59;396.85;;;380.08;;
17197;SDS011;8715;51.010;6.812;2022-08-07T00:59:25;404.13;;;386.95;;
17197;SDS011;8715;51.010;6.812;2022-08-07T01:01:50;417.27;;;399.98;;
17197;SDS011;8715;51.010;6.812;2022-08-07T01:04:16;372.17;;;356.80;;
17197;SDS011;8715;51.010;6.812;2022-08-07T01:06:43;386.38;;;370.67;;
17197;SDS011;8715;51.010;6.812;2022-08-07T01:09:08;390.48;;;374.63;;
17197;SDS011;8715;51.010;6.812;2022-08-07T01:11:34;394.35;;;377.63;;
17197;SDS011;8715;51.010;6.812;2022-08-07T01:14:00;374.70;;;359.02;;
17197;SDS011;8715;51.010;6.812;2022-08-07T01:16:25;364.50;;;348.75;;
17197;SDS011;8715;51.010;6.812;2022-08-07T01:18:52;388.40;;;372.63;;
17197;SDS011;8715;51.010;6.812;2022-08-07T01:21:18;375.45;;;360.38;;
17197;SDS011;8715;51.010;6.812;2022-08-07T01:23:46;375.08;;;359.70;;
17197;SDS011;8715;51.010;6.812;2022-08-07T01:26:12;374.90;;;359.67;;
17197;SDS011;8715;51.010;6.812;2022-08-07T01:28:40;366.02;;;350.55;;
17197;SDS011;8715;51.010;6.812;2022-08-07T01:31:06;365.85;;;350.42;;
17197;SDS011;8715;51.010;6.812;2022-08-07T01:33:31;370.48;;;355.05;;
17197;SDS011;8715;51.010;6.812;2022-08-07T01:35:57;353.05;;;338.17;;
17197;SDS011;8715;51.010;6.812;2022-08-07T01:38:24;373.10;;;357.42;;
17197;SDS011;8715;51.010;6.812;2022-08-07T01:40:50;367.52;;;352.13;;
17197;SDS011;8715;51.010;6.812;2022-08-07T01:43:18;373.58;;;358.15;;
17197;SDS011;8715;51.010;6.812;2022-08-07T01:45:43;382.50;;;367.17;;
17197;SDS011;8715;51.010;6.812;2022-08-07T01:48:08;377.75;;;361.98;;
17197;SDS011;8715;51.010;6.812;2022-08-07T01:50:35;386.75;;;370.42;;
17197;SDS011;8715;51.010;6.812;2022-08-07T01:53:01;358.23;;;343.05;;
17197;SDS011;8715;51.010;6.812;2022-08-07T01:55:28;351.25;;;335.85;;
17197;SDS011;8715;51.010;6.812;2022-08-07T01:58:12;362.65;;;346.92;;
17197;SDS011;8715;51.010;6.812;2022-08-07T02:00:38;361.92;;;346.48;;
17197;SDS011;8715;51.010;6.812;2022-08-07T02:03:10;349.30;;;334.67;;
17197;SDS011;8715;51.010;6.812;2022-08-07T02:05:46;349.17;;;334.33;;
17197;SDS011;8715;51.010;6.812;2022-08-07T02:08:16;365.13;;;349.70;;
17197;SDS011;8715;51.010;6.812;2022-08-07T02:10:43;352.17;;;337.55;;
17197;SDS011;8715;51.010;6.812;2022-08-07T02:13:09;370.25;;;354.80;;
17197;SDS011;8715;51.010;6.812;2022-08-07T02:15:36;362.90;;;347.25;;
17197;SDS011;8715;51.010;6.812;2022-08-07T02:18:03;347.95;;;332.70;;
17197;SDS011;8715;51.010;6.812;2022-08-07T02:20:29;351.48;;;335.95;;
17197;SDS011;8715;51.010;6.812;2022-08-07T02:22:57;357.10;;;341.90;;
17197;SDS011;8715;51.010;6.812;2022-08-07T02:27:50;341.50;;;326.73;;
17197;SDS011;8715;51.010;6.812;2022-08-07T02:30:16;341.63;;;327.25;;
17197;SDS011;8715;51.010;6.812;2022-08-07T02:32:42;360.73;;;343.33;;
17197;SDS011;8715;51.010;6.812;2022-08-07T02:35:08;343.42;;;328.98;;
17197;SDS011;8715;51.010;6.812;2022-08-07T02:37:35;351.17;;;335.58;;
17197;SDS011;8715;51.010;6.812;2022-08-07T02:40:04;336.60;;;322.45;;
17197;SDS011;8715;51.010;6.812;2022-08-07T02:42:31;348.92;;;334.25;;
17197;SDS011;8715;51.010;6.812;2022-08-07T02:44:57;330.42;;;316.15;;
17197;SDS011;8715;51.010;6.812;2022-08-07T02:47:24;354.73;;;339.85;;
17197;SDS011;8715;51.010;6.812;2022-08-07T02:49:50;350.88;;;336.13;;
17197;SDS011;8715;51.010;6.812;2022-08-07T02:52:18;344.02;;;329.20;;
17197;SDS011;8715;51.010;6.812;2022-08-07T02:54:47;353.80;;;339.02;;
17197;SDS011;8715;51.010;6.812;2022-08-07T02:57:13;354.92;;;339.58;;
17197;SDS011;8715;51.010;6.812;2022-08-07T02:59:40;373.90;;;358.10;;
17197;SDS011;8715;51.010;6.812;2022-08-07T03:02:10;369.75;;;354.13;;
17197;SDS011;8715;51.010;6.812;2022-08-07T03:04:36;357.75;;;342.35;;
17197;SDS011;8715;51.010;6.812;2022-08-07T03:07:02;342.17;;;327.30;;
17197;SDS011;8715;51.010;6.812;2022-08-07T03:09:27;338.90;;;324.05;;
17197;SDS011;8715;51.010;6.812;2022-08-07T03:11:53;360.75;;;345.52;;
17197;SDS011;8715;51.010;6.812;2022-08-07T03:14:18;347.35;;;332.88;;
17197;SDS011;8715;51.010;6.812;2022-08-07T03:16:44;335.27;;;320.30;;
17197;SDS011;8715;51.010;6.812;2022-08-07T03:19:09;343.17;;;327.98;;
17197;SDS011;8715;51.010;6.812;2022-08-07T03:21:35;344.08;;;329.20;;
17197;SDS011;8715;51.010;6.812;2022-08-07T03:24:01;334.92;;;319.95;;
17197;SDS011;8715;51.010;6.812;2022-08-07T03:26:27;340.80;;;326.33;;
17197;SDS011;8715;51.010;6.812;2022-08-07T03:28:55;322.48;;;308.25;;
17197;SDS011;8715;51.010;6.812;2022-08-07T03:31:22;340.42;;;326.02;;
17197;SDS011;8715;51.010;6.812;2022-08-07T03:34:00;335.35;;;320.98;;
17197;SDS011;8715;51.010;6.812;2022-08-07T03:36:27;331.95;;;317.88;;
17197;SDS011;8715;51.010;6.812;2022-08-07T03:38:54;332.65;;;318.77;;
17197;SDS011;8715;51.010;6.812;2022-08-07T03:41:22;330.27;;;316.30;;
17197;SDS011;8715;51.010;6.812;2022-08-07T03:43:47;343.83;;;329.30;;
17197;SDS011;8715;51.010;6.812;2022-08-07T03:46:13;343.83;;;329.15;;
17197;SDS011;8715;51.010;6.812;2022-08-07T03:48:38;354.45;;;339.10;;
17197;SDS011;8715;51.010;6.812;2022-08-07T03:51:04;316.80;;;302.92;;
17197;SDS011;8715;51.010;6.812;2022-08-07T03:53:30;332.27;;;317.70;;
17197;SDS011;8715;51.010;6.812;2022-08-07T03:55:56;349.92;;;335.23;;
17197;SDS011;8715;51.010;6.812;2022-08-07T03:58:21;334.92;;;320.92;;
17197;SDS011;8715;51.010;6.812;2022-08-07T04:00:47;311.75;;;298.27;;
17197;SDS011;8715;51.010;6.812;2022-08-07T04:03:14;339.50;;;325.40;;
17197;SDS011;8715;51.010;6.812;2022-08-07T04:05:40;337.52;;;322.70;;
17197;SDS011;8715;51.010;6.812;2022-08-07T04:08:05;327.15;;;312.95;;
17197;SDS011;8715;51.010;6.812;2022-08-07T04:10:34;322.00;;;308.05;;
17197;SDS011;8715;51.010;6.812;2022-08-07T04:12:59;324.10;;;308.42;;
17197;SDS011;8715;51.010;6.812;2022-08-07T04:15:25;333.25;;;318.70;;
17197;SDS011;8715;51.010;6.812;2022-08-07T04:17:51;336.48;;;321.90;;
17197;SDS011;8715;51.010;6.812;2022-08-07T04:20:16;338.67;;;324.40;;
17197;SDS011;8715;51.010;6.812;2022-08-07T04:22:43;351.85;;;336.90;;
17197;SDS011;8715;51.010;6.812;2022-08-07T04:25:09;353.23;;;338.00;;
17197;SDS011;8715;51.010;6.812;2022-08-07T04:27:34;366.83;;;351.48;;
17197;SDS011;8715;51.010;6.812;2022-08-07T04:30:00;403.13;;;386.90;;
17197;SDS011;8715;51.010;6.812;2022-08-07T04:32:25;409.02;;;392.30;;
17197;SDS011;8715;51.010;6.812;2022-08-07T04:34:51;433.55;;;416.25;;
17197;SDS011;8715;51.010;6.812;2022-08-07T04:37:18;435.40;;;417.88;;
17197;SDS011;8715;51.010;6.812;2022-08-07T04:39:43;457.27;;;438.85;;
17197;SDS011;8715;51.010;6.812;2022-08-07T04:42:09;471.73;;;452.00;;
17197;SDS011;8715;51.010;6.812;2022-08-07T04:44:34;483.27;;;464.20;;
17197;SDS011;8715;51.010;6.812;2022-08-07T04:48:02;500.85;;;480.60;;
17197;SDS011;8715;51.010;6.812;2022-08-07T04:50:16;521.30;;;500.63;;
17197;SDS011;8715;51.010;6.812;2022-08-07T04:52:56;520.15;;;499.20;;
17197;SDS011;8715;51.010;6.812;2022-08-07T04:57:59;548.47;;;526.35;;
17197;SDS011;8715;51.010;6.812;2022-08-07T05:03:21;580.83;;;557.38;;
17197;SDS011;8715;51.010;6.812;2022-08-07T05:05:51;608.17;;;583.58;;
17197;SDS011;8715;51.010;6.812;2022-08-07T05:08:31;604.58;;;579.95;;
17197;SDS011;8715;51.010;6.812;2022-08-07T05:13:44;607.42;;;582.20;;
17197;SDS011;8715;51.010;6.812;2022-08-07T05:16:22;614.28;;;588.75;;
17197;SDS011;8715;51.010;6.812;2022-08-07T05:18:55;622.53;;;596.47;;
17197;SDS011;8715;51.010;6.812;2022-08-07T05:21:25;629.40;;;603.15;;
17197;SDS011;8715;51.010;6.812;2022-08-07T05:23:58;651.63;;;624.10;;
17197;SDS011;8715;51.010;6.812;2022-08-07T05:26:26;636.25;;;609.72;;
17197;SDS011;8715;51.010;6.812;2022-08-07T05:28:55;638.72;;;611.55;;
17197;SDS011;8715;51.010;6.812;2022-08-07T05:31:22;656.75;;;628.97;;
17197;SDS011;8715;51.010;6.812;2022-08-07T05:33:50;652.97;;;624.90;;
17197;SDS011;8715;51.010;6.812;2022-08-07T05:36:17;642.22;;;614.72;;
17197;SDS011;8715;51.010;6.812;2022-08-07T05:38:43;652.88;;;624.38;;
17197;SDS011;8715;51.010;6.812;2022-08-07T05:41:09;668.70;;;639.22;;
17197;SDS011;8715;51.010;6.812;2022-08-07T05:43:35;663.50;;;634.50;;
17197;SDS011;8715;51.010;6.812;2022-08-07T05:46:01;654.85;;;626.40;;
17197;SDS011;8715;51.010;6.812;2022-08-07T05:48:27;655.08;;;626.67;;
17197;SDS011;8715;51.010;6.812;2022-08-07T05:50:54;658.58;;;629.95;;
17197;SDS011;8715;51.010;6.812;2022-08-07T05:53:20;660.65;;;631.67;;
17197;SDS011;8715;51.010;6.812;2022-08-07T05:55:45;664.70;;;635.50;;
17197;SDS011;8715;51.010;6.812;2022-08-07T05:58:11;650.63;;;622.17;;
17197;SDS011;8715;51.010;6.812;2022-08-07T06:00:36;662.95;;;633.55;;
17197;SDS011;8715;51.010;6.812;2022-08-07T06:03:04;658.38;;;628.50;;
17197;SDS011;8715;51.010;6.812;2022-08-07T06:05:31;671.15;;;641.60;;
17197;SDS011;8715;51.010;6.812;2022-08-07T06:07:58;659.03;;;630.33;;
17197;SDS011;8715;51.010;6.812;2022-08-07T06:10:24;667.78;;;638.35;;
17197;SDS011;8715;51.010;6.812;2022-08-07T06:12:50;664.45;;;634.97;;
17197;SDS011;8715;51.010;6.812;2022-08-07T06:15:16;672.33;;;642.38;;
17197;SDS011;8715;51.010;6.812;2022-08-07T06:17:43;669.55;;;639.65;;
17197;SDS011;8715;51.010;6.812;2022-08-07T06:20:09;679.88;;;649.35;;
17197;SDS011;8715;51.010;6.812;2022-08-07T06:22:35;668.58;;;638.75;;
17197;SDS011;8715;51.010;6.812;2022-08-07T06:25:01;673.22;;;643.15;;
17197;SDS011;8715;51.010;6.812;2022-08-07T06:27:27;665.60;;;636.33;;
17197;SDS011;8715;51.010;6.812;2022-08-07T06:29:53;654.88;;;626.00;;
17197;SDS011;8715;51.010;6.812;2022-08-07T06:32:18;662.78;;;633.55;;
17197;SDS011;8715;51.010;6.812;2022-08-07T06:34:44;671.13;;;641.25;;
17197;SDS011;8715;51.010;6.812;2022-08-07T06:37:09;667.08;;;637.47;;
17197;SDS011;8715;51.010;6.812;2022-08-07T06:39:35;672.10;;;642.53;;
17197;SDS011;8715;51.010;6.812;2022-08-07T06:42:02;651.08;;;622.67;;
17197;SDS011;8715;51.010;6.812;2022-08-07T06:44:32;656.55;;;628.08;;
17197;SDS011;8715;51.010;6.812;2022-08-07T06:46:59;650.30;;;622.35;;
17197;SDS011;8715;51.010;6.812;2022-08-07T06:49:24;637.90;;;610.55;;
17197;SDS011;8715;51.010;6.812;2022-08-07T06:51:50;646.63;;;619.20;;
17197;SDS011;8715;51.010;6.812;2022-08-07T06:54:17;628.08;;;601.45;;
17197;SDS011;8715;51.010;6.812;2022-08-07T06:56:43;633.30;;;606.17;;
17197;SDS011;8715;51.010;6.812;2022-08-07T06:59:12;616.90;;;590.78;;
17197;SDS011;8715;51.010;6.812;2022-08-07T07:01:41;615.38;;;589.60;;
17197;SDS011;8715;51.010;6.812;2022-08-07T07:04:07;601.72;;;576.45;;
17197;SDS011;8715;51.010;6.812;2022-08-07T07:06:32;603.95;;;579.13;;
17197;SDS011;8715;51.010;6.812;2022-08-07T07:12:34;594.90;;;570.03;;
17197;SDS011;8715;51.010;6.812;2022-08-07T07:14:35;602.47;;;577.60;;
17197;SDS011;8715;51.010;6.812;2022-08-07T07:17:05;586.45;;;562.03;;
17197;SDS011;8715;51.010;6.812;2022-08-07T07:19:36;591.72;;;567.47;;
17197;SDS011;8715;51.010;6.812;2022-08-07T07:22:06;586.97;;;562.58;;
17197;SDS011;8715;51.010;6.812;2022-08-07T07:24:32;589.17;;;564.67;;
17197;SDS011;8715;51.010;6.812;2022-08-07T07:26:58;574.70;;;551.22;;
17197;SDS011;8715;51.010;6.812;2022-08-07T07:29:26;569.65;;;546.53;;
17197;SDS011;8715;51.010;6.812;2022-08-07T07:31:52;575.72;;;552.33;;
17197;SDS011;8715;51.010;6.812;2022-08-07T07:34:23;577.15;;;553.55;;
17197;SDS011;8715;51.010;6.812;2022-08-07T07:36:52;579.20;;;555.30;;
17197;SDS011;8715;51.010;6.812;2022-08-07T07:39:18;595.58;;;571.35;;
17197;SDS011;8715;51.010;6.812;2022-08-07T07:41:47;586.92;;;562.78;;
17197;SDS011;8715;51.010;6.812;2022-08-07T07:44:14;593.78;;;569.38;;
17197;SDS011;8715;51.010;6.812;2022-08-07T07:46:40;585.47;;;561.42;;
17197;SDS011;8715;51.010;6.812;2022-08-07T07:49:06;590.55;;;565.53;;
17197;SDS011;8715;51.010;6.812;2022-08-07T07:51:32;582.00;;;558.17;;
17197;SDS011;8715;51.010;6.812;2022-08-07T07:53:59;590.40;;;566.15;;
17197;SDS011;8715;51.010;6.812;2022-08-07T07:56:25;585.95;;;561.70;;
17197;SDS011;8715;51.010;6.812;2022-08-07T07:58:52;585.67;;;561.85;;
17197;SDS011;8715;51.010;6.812;2022-08-07T08:01:17;585.78;;;562.33;;
17197;SDS011;8715;51.010;6.812;2022-08-07T08:03:43;593.58;;;568.88;;
17197;SDS011;8715;51.010;6.812;2022-08-07T08:06:09;604.38;;;579.28;;
17197;SDS011;8715;51.010;6.812;2022-08-07T08:08:35;590.47;;;566.33;;
17197;SDS011;8715;51.010;6.812;2022-08-07T08:11:01;591.33;;;567.28;;
17197;SDS011;8715;51.010;6.812;2022-08-07T08:13:28;601.50;;;576.97;;
17197;SDS011;8715;51.010;6.812;2022-08-07T08:15:53;596.25;;;571.92;;
17197;SDS011;8715;51.010;6.812;2022-08-07T08:18:19;596.90;;;572.38;;
17197;SDS011;8715;51.010;6.812;2022-08-07T08:20:47;598.25;;;573.58;;
17197;SDS011;8715;51.010;6.812;2022-08-07T08:23:12;597.08;;;570.28;;
17197;SDS011;8715;51.010;6.812;2022-08-07T08:25:58;591.95;;;567.50;;
17197;SDS011;8715;51.010;6.812;2022-08-07T08:28:43;592.92;;;568.25;;
17197;SDS011;8715;51.010;6.812;2022-08-07T08:31:10;586.58;;;562.42;;
17197;SDS011;8715;51.010;6.812;2022-08-07T08:33:38;587.10;;;562.70;;
17197;SDS011;8715;51.010;6.812;2022-08-07T08:36:06;591.63;;;567.22;;
17197;SDS011;8715;51.010;6.812;2022-08-07T08:38:34;597.28;;;572.50;;
17197;SDS011;8715;51.010;6.812;2022-08-07T08:51:54;602.47;;;577.60;;
17197;SDS011;8715;51.010;6.812;2022-08-07T08:54:27;601.15;;;576.58;;
17197;SDS011;8715;51.010;6.812;2022-08-07T08:56:54;610.10;;;584.78;;
17197;SDS011;8715;51.010;6.812;2022-08-07T08:59:26;601.28;;;576.25;;
17197;SDS011;8715;51.010;6.812;2022-08-07T09:01:59;607.05;;;581.58;;
17197;SDS011;8715;51.010;6.812;2022-08-07T09:18:13;606.20;;;580.70;;
17197;SDS011;8715;51.010;6.812;2022-08-07T09:23:31;607.38;;;580.50;;
17197;SDS011;8715;51.010;6.812;2022-08-07T09:28:39;614.03;;;587.85;;
17197;SDS011;8715;51.010;6.812;2022-08-07T09:36:42;612.00;;;586.40;;
17197;SDS011;8715;51.010;6.812;2022-08-07T09:39:24;605.67;;;579.97;;
17197;SDS011;8715;51.010;6.812;2022-08-07T09:44:43;607.63;;;582.22;;
17197;SDS011;8715;51.010;6.812;2022-08-07T09:47:28;604.63;;;579.08;;
17197;SDS011;8715;51.010;6.812;2022-08-07T09:50:11;613.65;;;587.97;;
17197;SDS011;8715;51.010;6.812;2022-08-07T09:52:46;612.83;;;586.70;;
17197;SDS011;8715;51.010;6.812;2022-08-07T10:03:45;614.63;;;588.83;;
17197;SDS011;8715;51.010;6.812;2022-08-07T10:14:27;617.53;;;591.75;;
17197;SDS011;8715;51.010;6.812;2022-08-07T10:17:08;610.65;;;585.13;;
17197;SDS011;8715;51.010;6.812;2022-08-07T10:28:13;621.17;;;594.88;;
17197;SDS011;8715;51.010;6.812;2022-08-07T10:47:45;621.92;;;595.60;;
17197;SDS011;8715;51.010;6.812;2022-08-07T10:52:52;626.05;;;599.53;;
17197;SDS011;8715;51.010;6.812;2022-08-07T10:55:27;625.97;;;599.53;;
17197;SDS011;8715;51.010;6.812;2022-08-07T10:58:02;616.80;;;591.00;;
17197;SDS011;8715;51.010;6.812;2022-08-07T11:00:35;628.05;;;601.55;;
17197;SDS011;8715;51.010;6.812;2022-08-07T11:09:02;614.78;;;589.10;;
17197;SDS011;8715;51.010;6.812;2022-08-07T11:11:34;627.35;;;600.95;;
17197;SDS011;8715;51.010;6.812;2022-08-07T11:14:06;621.35;;;595.30;;
17197;SDS011;8715;51.010;6.812;2022-08-07T11:16:35;622.20;;;596.15;;
17197;SDS011;8715;51.010;6.812;2022-08-07T11:22:00;620.90;;;594.70;;
17197;SDS011;8715;51.010;6.812;2022-08-07T11:24:32;616.88;;;590.78;;
17197;SDS011;8715;51.010;6.812;2022-08-07T11:35:08;629.60;;;602.65;;
17197;SDS011;8715;51.010;6.812;2022-08-07T12:05:52;619.28;;;593.22;;
17197;SDS011;8715;51.010;6.812;2022-08-07T12:08:23;633.72;;;607.00;;
17197;SDS011;8715;51.010;6.812;2022-08-07T12:13:42;635.92;;;609.10;;
17197;SDS011;8715;51.010;6.812;2022-08-07T12:16:19;631.42;;;604.42;;
17197;SDS011;8715;51.010;6.812;2022-08-07T12:22:07;630.30;;;603.72;;
17197;SDS011;8715;51.010;6.812;2022-08-07T12:27:32;635.10;;;608.17;;
17197;SDS011;8715;51.010;6.812;2022-08-07T12:30:03;632.88;;;605.85;;
17197;SDS011;8715;51.010;6.812;2022-08-07T12:32:33;629.80;;;603.03;;
17197;SDS011;8715;51.010;6.812;2022-08-07T12:35:03;641.08;;;613.50;;
17197;SDS011;8715;51.010;6.812;2022-08-07T12:37:30;630.67;;;603.17;;
17197;SDS011;8715;51.010;6.812;2022-08-07T12:39:56;630.75;;;603.53;;
17197;SDS011;8715;51.010;6.812;2022-08-07T12:42:25;632.47;;;605.33;;
17197;SDS011;8715;51.010;6.812;2022-08-07T12:44:52;627.00;;;600.40;;
17197;SDS011;8715;51.010;6.812;2022-08-07T12:50:05;630.97;;;603.95;;
17197;SDS011;8715;51.010;6.812;2022-08-07T12:52:40;633.63;;;606.22;;
17197;SDS011;8715;51.010;6.812;2022-08-07T12:55:26;625.30;;;598.95;;
17197;SDS011;8715;51.010;6.812;2022-08-07T12:57:56;633.70;;;606.67;;
17197;SDS011;8715;51.010;6.812;2022-08-07T13:00:33;632.35;;;605.25;;
17197;SDS011;8715;51.010;6.812;2022-08-07T13:11:20;626.50;;;599.63;;
17197;SDS011;8715;51.010;6.812;2022-08-07T13:22:09;624.30;;;598.00;;
17197;SDS011;8715;51.010;6.812;2022-08-07T13:24:39;629.72;;;603.25;;
17197;SDS011;8715;51.010;6.812;2022-08-07T13:27:14;630.40;;;603.70;;
17197;SDS011;8715;51.010;6.812;2022-08-07T13:30:02;635.95;;;608.78;;
17197;SDS011;8715;51.010;6.812;2022-08-07T13:41:10;638.50;;;611.40;;
17197;SDS011;8715;51.010;6.812;2022-08-07T13:43:41;631.15;;;604.15;;
17197;SDS011;8715;51.010;6.812;2022-08-07T13:46:07;625.30;;;598.65;;
17197;SDS011;8715;51.010;6.812;2022-08-07T13:48:36;635.75;;;608.58;;
17197;SDS011;8715;51.010;6.812;2022-08-07T13:51:02;633.92;;;606.35;;
17197;SDS011;8715;51.010;6.812;2022-08-07T13:53:30;635.53;;;607.90;;
17197;SDS011;8715;51.010;6.812;2022-08-07T13:56:00;634.83;;;607.60;;
17197;SDS011;8715;51.010;6.812;2022-08-07T13:58:26;624.28;;;597.90;;
17197;SDS011;8715;51.010;6.812;2022-08-07T14:01:11;637.60;;;610.42;;
17197;SDS011;8715;51.010;6.812;2022-08-07T14:03:38;631.00;;;604.35;;
17197;SDS011;8715;51.010;6.812;2022-08-07T14:06:05;632.10;;;605.17;;
17197;SDS011;8715;51.010;6.812;2022-08-07T14:08:32;624.70;;;598.35;;
17197;SDS011;8715;51.010;6.812;2022-08-07T14:10:59;636.67;;;609.60;;
17197;SDS011;8715;51.010;6.812;2022-08-07T14:13:25;632.55;;;605.05;;
17197;SDS011;8715;51.010;6.812;2022-08-07T14:15:54;636.90;;;609.35;;
17197;SDS011;8715;51.010;6.812;2022-08-07T14:18:30;644.67;;;617.08;;
17197;SDS011;8715;51.010;6.812;2022-08-07T14:21:31;630.22;;;602.88;;
17197;SDS011;8715;51.010;6.812;2022-08-07T14:23:53;633.47;;;604.88;;
17197;SDS011;8715;51.010;6.812;2022-08-07T14:26:22;630.80;;;603.60;;
17197;SDS011;8715;51.010;6.812;2022-08-07T14:28:51;644.60;;;616.97;;
17197;SDS011;8715;51.010;6.812;2022-08-07T14:31:17;638.20;;;610.75;;
17197;SDS011;8715;51.010;6.812;2022-08-07T14:33:47;645.58;;;617.13;;
17197;SDS011;8715;51.010;6.812;2022-08-07T14:36:13;630.05;;;602.85;;
17197;SDS011;8715;51.010;6.812;2022-08-07T14:38:39;626.65;;;600.42;;
17197;SDS011;8715;51.010;6.812;2022-08-07T14:41:05;629.58;;;602.70;;
17197;SDS011;8715;51.010;6.812;2022-08-07T14:43:32;628.88;;;602.03;;
17197;SDS011;8715;51.010;6.812;2022-08-07T14:45:59;638.30;;;611.28;;
17197;SDS011;8715;51.010;6.812;2022-08-07T14:48:25;619.13;;;592.85;;
17197;SDS011;8715;51.010;6.812;2022-08-07T14:50:52;620.58;;;594.47;;
17197;SDS011;8715;51.010;6.812;2022-08-07T14:53:20;626.63;;;599.88;;
17197;SDS011;8715;51.010;6.812;2022-08-07T14:55:47;635.30;;;608.10;;
17197;SDS011;8715;51.010;6.812;2022-08-07T14:58:13;633.78;;;606.92;;
17197;SDS011;8715;51.010;6.812;2022-08-07T15:00:41;639.50;;;612.08;;
17197;SDS011;8715;51.010;6.812;2022-08-07T15:03:08;628.50;;;602.03;;
17197;SDS011;8715;51.010;6.812;2022-08-07T15:05:35;629.45;;;602.78;;
17197;SDS011;8715;51.010;6.812;2022-08-07T15:08:03;623.33;;;596.95;;
17197;SDS011;8715;51.010;6.812;2022-08-07T15:10:29;624.90;;;598.30;;
17197;SDS011;8715;51.010;6.812;2022-08-07T15:12:58;647.13;;;618.92;;
17197;SDS011;8715;51.010;6.812;2022-08-07T15:15:59;634.03;;;606.95;;
17197;SDS011;8715;51.010;6.812;2022-08-07T15:18:18;639.08;;;611.70;;
17197;SDS011;8715;51.010;6.812;2022-08-07T15:20:46;640.05;;;612.63;;
17197;SDS011;8715;51.010;6.812;2022-08-07T15:23:12;626.60;;;600.10;;
17197;SDS011;8715;51.010;6.812;2022-08-07T15:25:39;633.65;;;606.67;;
17197;SDS011;8715;51.010;6.812;2022-08-07T15:28:10;633.42;;;606.38;;
17197;SDS011;8715;51.010;6.812;2022-08-07T15:30:36;631.67;;;604.67;;
17197;SDS011;8715;51.010;6.812;2022-08-07T15:33:03;631.05;;;604.53;;
17197;SDS011;8715;51.010;6.812;2022-08-07T15:35:29;633.80;;;606.50;;
17197;SDS011;8715;51.010;6.812;2022-08-07T15:37:57;648.58;;;620.70;;
17197;SDS011;8715;51.010;6.812;2022-08-07T15:40:25;633.47;;;606.35;;
17197;SDS011;8715;51.010;6.812;2022-08-07T15:42:59;631.58;;;604.40;;
17197;SDS011;8715;51.010;6.812;2022-08-07T15:45:32;636.42;;;609.13;;
17197;SDS011;8715;51.010;6.812;2022-08-07T15:48:07;641.65;;;614.03;;
17197;SDS011;8715;51.010;6.812;2022-08-07T15:50:39;638.13;;;611.15;;
17197;SDS011;8715;51.010;6.812;2022-08-07T15:53:08;630.63;;;603.15;;
17197;SDS011;8715;51.010;6.812;2022-08-07T15:55:38;641.72;;;614.13;;
17197;SDS011;8715;51.010;6.812;2022-08-07T15:58:09;638.67;;;611.35;;
17197;SDS011;8715;51.010;6.812;2022-08-07T16:00:37;642.97;;;615.45;;
17197;SDS011;8715;51.010;6.812;2022-08-07T16:03:19;628.47;;;601.55;;
17197;SDS011;8715;51.010;6.812;2022-08-07T16:05:49;627.08;;;600.28;;
17197;SDS011;8715;51.010;6.812;2022-08-07T16:08:20;640.35;;;612.85;;
17197;SDS011;8715;51.010;6.812;2022-08-07T16:10:50;634.95;;;607.65;;
17197;SDS011;8715;51.010;6.812;2022-08-07T16:16:00;638.50;;;611.10;;
17197;SDS011;8715;51.010;6.812;2022-08-07T16:26:17;643.35;;;615.25;;
17197;SDS011;8715;51.010;6.812;2022-08-07T16:29:15;622.30;;;595.17;;
17197;SDS011;8715;51.010;6.812;2022-08-07T16:35:06;619.05;;;592.63;;
17197;SDS011;8715;51.010;6.812;2022-08-07T16:45:32;620.70;;;594.38;;
17197;SDS011;8715;51.010;6.812;2022-08-07T16:51:07;634.58;;;607.33;;
17197;SDS011;8715;51.010;6.812;2022-08-07T16:56:38;634.20;;;607.08;;
17197;SDS011;8715;51.010;6.812;2022-08-07T16:59:14;621.30;;;595.50;;
17197;SDS011;8715;51.010;6.812;2022-08-07T17:04:48;627.33;;;600.83;;
17197;SDS011;8715;51.010;6.812;2022-08-07T17:07:20;633.60;;;606.60;;
17197;SDS011;8715;51.010;6.812;2022-08-07T17:10:23;621.63;;;595.13;;
17197;SDS011;8715;51.010;6.812;2022-08-07T17:15:34;627.53;;;600.67;;
17197;SDS011;8715;51.010;6.812;2022-08-07T17:21:02;626.33;;;599.70;;
17197;SDS011;8715;51.010;6.812;2022-08-07T17:29:13;638.25;;;611.08;;
17197;SDS011;8715;51.010;6.812;2022-08-07T17:31:50;634.63;;;608.17;;
17197;SDS011;8715;51.010;6.812;2022-08-07T17:37:04;628.85;;;601.85;;
17197;SDS011;8715;51.010;6.812;2022-08-07T17:44:59;633.03;;;606.17;;
17197;SDS011;8715;51.010;6.812;2022-08-07T17:50:25;617.38;;;591.58;;
17197;SDS011;8715;51.010;6.812;2022-08-07T17:55:46;617.92;;;592.05;;
17197;SDS011;8715;51.010;6.812;2022-08-07T18:01:07;620.70;;;594.90;;
17197;SDS011;8715;51.010;6.812;2022-08-07T18:06:50;617.47;;;591.30;;
17197;SDS011;8715;51.010;6.812;2022-08-07T18:09:19;608.17;;;583.13;;
17197;SDS011;8715;51.010;6.812;2022-08-07T18:11:50;617.47;;;591.67;;
17197;SDS011;8715;51.010;6.812;2022-08-07T18:14:22;621.33;;;593.28;;
17197;SDS011;8715;51.010;6.812;2022-08-07T18:16:56;619.25;;;593.17;;
17197;SDS011;8715;51.010;6.812;2022-08-07T18:22:09;627.42;;;601.00;;